Time;durP1;ratioP1;P1;durP2;ratioP2;P2;SDS_P1;SDS_P2;PMS_P1;PMS_P2;Temp;Humidity;BMP_temperature;BMP_pressure;BME280_temperature;BME280_humidity;BME280_pressure;Samples;Min_cycle;Max_cycle;Signal;HPM_P1;HPM_P2
2021/11/16 00:01:58;;;;;;;35.03;22.63;;;7.60;99.90;;;;;;5037818;28;20033;-78
2021/11/16 00:04:23;;;;;;;42.20;22.75;;;7.50;99.90;;;;;;5030913;28;20017;-78
2021/11/16 00:06:52;;;;;;;36.15;23.00;;;7.50;99.90;;;;;;5030869;28;20021;-79
2021/11/16 00:09:18;;;;;;;36.63;22.10;;;7.50;99.90;;;;;;5031854;28;20034;-77
2021/11/16 00:11:44;;;;;;;34.60;20.98;;;7.60;99.90;;;;;;5028361;28;20030;-78
2021/11/16 00:14:10;;;;;;;36.28;22.58;;;7.60;99.90;;;;;;5035764;28;20032;-79
2021/11/16 00:16:37;;;;;;;33.70;21.00;;;7.70;99.90;;;;;;5024187;28;20040;-84
2021/11/16 00:19:07;;;;;;;32.25;21.15;;;7.80;99.90;;;;;;5032186;28;20029;-76
2021/11/16 00:21:33;;;;;;;37.28;22.92;;;7.60;99.90;;;;;;5027063;28;20041;-76
2021/11/16 00:24:02;;;;;;;37.92;22.80;;;7.60;99.90;;;;;;5025458;28;20049;-77
2021/11/16 00:26:28;;;;;;;36.70;23.20;;;7.50;99.90;;;;;;5026245;28;20413;-77
2021/11/16 00:28:54;;;;;;;31.88;22.23;;;7.60;99.90;;;;;;5032200;28;20021;-76
2021/11/16 00:31:20;;;;;;;34.92;21.88;;;7.60;99.90;;;;;;5022766;28;20028;-76
2021/11/16 00:33:48;;;;;;;34.90;21.95;;;7.50;99.90;;;;;;5038403;28;20037;-77
2021/11/16 00:36:13;;;;;;;33.72;20.70;;;7.50;99.90;;;;;;5025731;28;20405;-76
2021/11/16 00:38:40;;;;;;;31.35;20.50;;;7.50;99.90;;;;;;5024003;28;20040;-76
2021/11/16 00:41:06;;;;;;;33.35;21.48;;;7.50;99.90;;;;;;5032524;28;20021;-78
2021/11/16 00:43:33;;;;;;;29.20;19.08;;;7.50;99.90;;;;;;5034286;28;20109;-78
2021/11/16 00:45:59;;;;;;;27.58;18.05;;;7.50;99.90;;;;;;5026158;28;20034;-77
2021/11/16 00:48:25;;;;;;;30.98;19.80;;;7.50;99.90;;;;;;5029733;28;20017;-76
2021/11/16 00:50:56;;;;;;;31.85;20.27;;;7.50;99.90;;;;;;5027174;28;20057;-78
2021/11/16 00:53:23;;;;;;;32.13;21.05;;;7.60;99.90;;;;;;5034154;28;20026;-77
2021/11/16 00:55:49;;;;;;;34.05;20.92;;;7.50;99.90;;;;;;5029516;28;20091;-77
2021/11/16 00:58:15;;;;;;;27.35;18.45;;;7.50;99.90;;;;;;5034367;28;20055;-78
2021/11/16 01:00:42;;;;;;;33.00;20.17;;;7.50;99.90;;;;;;5036269;28;20100;-78
2021/11/16 01:03:10;;;;;;;30.38;19.02;;;7.50;99.90;;;;;;5038321;28;20022;-78
2021/11/16 01:05:35;;;;;;;31.90;19.70;;;7.50;99.90;;;;;;5036419;28;20064;-77
2021/11/16 01:08:01;;;;;;;29.13;19.05;;;7.50;99.90;;;;;;5029956;28;20094;-77
2021/11/16 01:10:28;;;;;;;30.08;19.30;;;7.50;99.90;;;;;;5037851;28;20497;-78
2021/11/16 01:12:53;;;;;;;32.20;20.35;;;7.50;99.90;;;;;;5037186;28;20025;-77
2021/11/16 01:15:20;;;;;;;31.52;19.52;;;7.50;99.90;;;;;;5039175;28;20025;-78
2021/11/16 01:17:47;;;;;;;34.63;20.30;;;7.50;99.90;;;;;;5037633;28;20025;-77
2021/11/16 01:20:15;;;;;;;33.38;20.95;;;7.50;99.90;;;;;;5034283;28;20481;-76
2021/11/16 01:22:42;;;;;;;34.63;20.85;;;7.50;99.90;;;;;;5041484;28;20040;-79
2021/11/16 01:25:10;;;;;;;32.38;21.48;;;7.50;99.90;;;;;;5034149;28;20068;-79
2021/11/16 01:27:36;;;;;;;29.92;19.60;;;7.50;99.90;;;;;;5034876;28;20072;-79
2021/11/16 01:30:07;;;;;;;33.92;21.15;;;7.50;99.90;;;;;;5035736;28;20018;-79
2021/11/16 01:32:39;;;;;;;30.60;19.92;;;7.50;99.90;;;;;;5026886;28;20374;-77
2021/11/16 01:35:05;;;;;;;33.80;21.67;;;7.50;99.90;;;;;;5032050;28;20033;-78
2021/11/16 01:37:32;;;;;;;35.55;20.92;;;7.50;99.90;;;;;;5034251;28;20052;-78
2021/11/16 01:39:57;;;;;;;32.10;21.17;;;7.50;99.90;;;;;;5033292;28;20040;-77
2021/11/16 01:42:23;;;;;;;34.67;21.27;;;7.50;99.90;;;;;;5027455;28;20025;-77
2021/11/16 01:44:50;;;;;;;37.58;20.92;;;7.50;99.90;;;;;;5036316;28;20061;-78
2021/11/16 01:47:16;;;;;;;32.88;20.50;;;7.50;99.90;;;;;;5039608;28;20042;-77
2021/11/16 01:49:43;;;;;;;31.33;19.88;;;7.50;99.90;;;;;;5029953;28;20053;-77
2021/11/16 01:52:09;;;;;;;32.17;21.30;;;7.50;99.90;;;;;;5033876;28;20053;-78
2021/11/16 01:54:36;;;;;;;34.58;20.85;;;7.50;99.90;;;;;;5032450;28;20032;-78
2021/11/16 01:57:03;;;;;;;28.88;19.58;;;7.50;99.90;;;;;;5034205;28;20397;-77
2021/11/16 01:59:29;;;;;;;35.05;20.42;;;7.50;99.90;;;;;;5057066;28;20025;-77
2021/11/16 02:01:55;;;;;;;30.30;19.77;;;7.50;99.90;;;;;;5051153;28;20040;-78
2021/11/16 02:04:22;;;;;;;34.72;20.90;;;7.50;99.90;;;;;;5044278;28;20477;-79
2021/11/16 02:06:48;;;;;;;27.80;17.52;;;7.40;99.90;;;;;;5034516;28;20081;-77
2021/11/16 02:09:16;;;;;;;24.58;18.25;;;7.40;99.90;;;;;;5049891;28;20089;-77
2021/11/16 02:11:42;;;;;;;28.73;19.98;;;7.40;99.90;;;;;;5052234;28;20037;-78
2021/11/16 02:14:12;;;;;;;30.75;19.50;;;7.40;99.90;;;;;;5053742;28;20036;-78
2021/11/16 02:16:38;;;;;;;26.35;17.83;;;7.40;99.90;;;;;;5053095;28;20085;-77
2021/11/16 02:19:09;;;;;;;28.02;17.70;;;7.40;99.90;;;;;;5037838;28;20108;-77
2021/11/16 02:21:36;;;;;;;25.17;16.77;;;7.40;99.90;;;;;;5039765;28;20065;-78
2021/11/16 02:24:03;;;;;;;25.73;17.65;;;7.40;99.90;;;;;;5026453;28;20087;-79
2021/11/16 02:26:29;;;;;;;28.00;17.25;;;7.50;99.90;;;;;;5040659;28;20392;-77
2021/11/16 02:28:55;;;;;;;27.42;17.23;;;7.50;99.90;;;;;;5044931;28;20507;-77
2021/11/16 02:31:21;;;;;;;28.17;17.45;;;7.40;99.90;;;;;;5044122;28;20030;-77
2021/11/16 02:33:47;;;;;;;23.40;15.75;;;7.40;99.90;;;;;;5042498;28;20404;-76
2021/11/16 02:36:13;;;;;;;22.55;15.68;;;7.40;99.90;;;;;;5040451;28;20037;-77
2021/11/16 02:38:41;;;;;;;23.92;16.30;;;7.40;99.90;;;;;;5042128;28;20035;-77
2021/11/16 02:41:08;;;;;;;26.17;16.63;;;7.40;99.90;;;;;;5042641;28;20959;-77
2021/11/16 02:43:35;;;;;;;22.88;16.02;;;7.40;99.90;;;;;;5037388;28;20072;-77
2021/11/16 02:46:02;;;;;;;25.88;16.13;;;7.50;99.90;;;;;;5037932;28;20026;-76
2021/11/16 02:48:32;;;;;;;22.88;16.08;;;7.50;99.90;;;;;;5030493;28;20017;-78
2021/11/16 02:51:01;;;;;;;26.48;15.77;;;7.50;99.90;;;;;;5035440;28;20029;-77
2021/11/16 02:53:27;;;;;;;30.17;18.40;;;7.40;99.90;;;;;;5033891;28;20061;-78
2021/11/16 02:55:53;;;;;;;30.00;18.35;;;7.40;99.90;;;;;;5034034;28;20026;-79
2021/11/16 02:58:21;;;;;;;29.55;17.92;;;7.40;99.90;;;;;;5025924;28;20026;-78
2021/11/16 03:01:04;;;;;;;35.35;19.08;;;7.30;99.90;;;;;;5037290;28;20079;-78
2021/11/16 03:03:31;;;;;;;32.22;20.00;;;7.30;99.90;;;;;;5038938;28;20023;-77
2021/11/16 03:05:57;;;;;;;31.70;20.45;;;7.30;99.90;;;;;;5038434;28;20036;-77
2021/11/16 03:08:25;;;;;;;30.02;18.13;;;7.30;99.90;;;;;;5044471;28;20077;-77
2021/11/16 03:10:55;;;;;;;30.42;19.10;;;7.30;99.90;;;;;;5035914;28;20091;-77
2021/11/16 03:13:23;;;;;;;35.42;21.85;;;7.30;99.90;;;;;;5026541;28;20025;-77
2021/11/16 03:15:49;;;;;;;33.63;18.70;;;7.20;99.90;;;;;;5033963;28;20029;-77
2021/11/16 03:18:15;;;;;;;31.90;20.02;;;7.30;99.90;;;;;;5034097;28;20108;-77
2021/11/16 03:20:44;;;;;;;32.45;19.67;;;7.30;99.90;;;;;;5034120;28;20125;-77
2021/11/16 03:23:16;;;;;;;31.17;19.55;;;7.20;99.90;;;;;;5035703;28;20025;-77
2021/11/16 03:25:48;;;;;;;30.63;18.92;;;7.20;99.90;;;;;;5035404;28;20017;-78
2021/11/16 03:28:15;;;;;;;35.13;21.33;;;7.10;99.90;;;;;;5034050;28;20021;-78
2021/11/16 03:30:43;;;;;;;32.45;20.58;;;7.10;99.90;;;;;;5027583;28;20420;-77
2021/11/16 03:33:09;;;;;;;36.28;21.70;;;7.20;99.90;;;;;;5036593;28;20381;-79
2021/11/16 03:35:35;;;;;;;33.30;19.52;;;7.20;99.90;;;;;;5036756;28;20485;-79
2021/11/16 03:38:02;;;;;;;29.20;19.27;;;7.20;99.90;;;;;;5041834;28;20477;-78
2021/11/16 03:40:30;;;;;;;30.85;19.33;;;7.20;99.90;;;;;;5038815;28;20041;-78
2021/11/16 03:42:56;;;;;;;38.47;21.38;;;7.10;99.90;;;;;;5052535;28;20031;-79
2021/11/16 03:45:24;;;;;;;35.65;20.63;;;7.00;99.90;;;;;;5046272;28;20482;-77
2021/11/16 03:47:50;;;;;;;30.05;19.20;;;7.00;99.90;;;;;;5049028;28;20107;-77
2021/11/16 03:50:19;;;;;;;31.02;19.63;;;7.00;99.90;;;;;;5049847;28;20021;-78
2021/11/16 03:52:50;;;;;;;35.20;20.33;;;7.00;99.90;;;;;;5049688;28;20055;-77
2021/11/16 03:55:16;;;;;;;28.55;19.27;;;7.00;99.90;;;;;;5051132;28;20033;-77
2021/11/16 03:57:42;;;;;;;30.80;19.08;;;7.00;99.90;;;;;;5044947;28;20060;-78
2021/11/16 04:00:13;;;;;;;32.88;21.02;;;6.90;99.90;;;;;;5049147;28;20117;-78
2021/11/16 04:02:40;;;;;;;31.77;19.23;;;7.00;99.90;;;;;;5031588;28;20054;-77
2021/11/16 04:05:06;;;;;;;33.67;19.70;;;7.00;99.90;;;;;;5030704;28;20022;-78
2021/11/16 04:07:33;;;;;;;32.08;19.73;;;7.00;99.90;;;;;;5029718;28;20104;-78
2021/11/16 04:09:59;;;;;;;35.65;21.25;;;7.00;99.90;;;;;;5032190;28;20073;-77
2021/11/16 04:12:25;;;;;;;30.70;19.48;;;7.00;99.90;;;;;;5025266;28;20416;-78
2021/11/16 04:14:51;;;;;;;29.45;19.27;;;7.00;99.90;;;;;;5031808;28;20528;-78
2021/11/16 04:17:17;;;;;;;37.78;19.73;;;7.00;99.90;;;;;;5033169;28;20033;-77
2021/11/16 04:19:43;;;;;;;34.55;20.75;;;7.00;99.90;;;;;;5032740;28;20512;-77
2021/11/16 04:22:09;;;;;;;38.95;19.55;;;7.00;99.90;;;;;;5033040;28;20025;-78
2021/11/16 04:24:35;;;;;;;30.80;19.38;;;7.00;99.90;;;;;;5034496;28;20036;-76
2021/11/16 04:27:01;;;;;;;31.88;20.55;;;7.00;99.90;;;;;;5043738;28;20399;-78
2021/11/16 04:29:27;;;;;;;33.70;20.50;;;7.00;99.90;;;;;;5046183;28;20480;-78
2021/11/16 04:31:52;;;;;;;31.50;19.33;;;7.00;99.90;;;;;;5037886;28;20025;-79
2021/11/16 04:34:18;;;;;;;32.55;19.98;;;7.00;99.90;;;;;;5031707;28;20401;-78
2021/11/16 04:36:44;;;;;;;31.05;19.60;;;7.00;99.90;;;;;;5033898;28;20055;-78
2021/11/16 04:39:09;;;;;;;32.38;19.88;;;7.00;99.90;;;;;;5027832;28;20450;-77
2021/11/16 04:41:36;;;;;;;32.75;19.95;;;7.00;99.90;;;;;;5032780;28;20087;-78
2021/11/16 04:44:04;;;;;;;34.22;19.90;;;7.00;99.90;;;;;;5030984;28;20029;-78
2021/11/16 04:46:30;;;;;;;28.17;18.50;;;7.00;99.90;;;;;;5036356;28;20385;-77
2021/11/16 04:54:36;;;;;;;30.48;19.25;;;7.00;99.90;;;;;;5038210;28;20029;-77
2021/11/16 04:59:51;;;;;;;30.83;19.05;;;7.10;99.90;;;;;;5027687;28;20397;-79
2021/11/16 05:02:38;;;;;;;31.13;17.73;;;7.20;99.90;;;;;;5032702;28;20049;-78
2021/11/16 05:05:09;;;;;;;30.45;19.58;;;7.10;99.90;;;;;;5029962;28;20276;-77
2021/11/16 05:07:36;;;;;;;30.83;20.83;;;7.10;99.90;;;;;;5039864;28;20025;-78
2021/11/16 05:10:05;;;;;;;35.72;20.25;;;7.10;99.90;;;;;;5052897;28;20037;-77
2021/11/16 05:12:32;;;;;;;34.55;20.70;;;7.10;99.90;;;;;;5038736;28;20075;-77
2021/11/16 05:15:00;;;;;;;31.55;19.80;;;7.10;99.90;;;;;;5031849;28;20029;-78
2021/11/16 05:17:27;;;;;;;30.95;19.88;;;7.10;99.90;;;;;;5025290;28;20026;-78
2021/11/16 05:19:53;;;;;;;29.52;18.45;;;7.00;99.90;;;;;;5033037;28;20107;-78
2021/11/16 05:22:18;;;;;;;29.30;18.83;;;7.00;99.90;;;;;;5049264;28;20045;-78
2021/11/16 05:24:44;;;;;;;29.55;18.55;;;7.00;99.90;;;;;;5054081;28;20410;-78
2021/11/16 05:27:10;;;;;;;29.10;19.40;;;7.00;99.90;;;;;;5054772;28;20035;-78
2021/11/16 05:29:36;;;;;;;30.05;18.55;;;7.00;99.90;;;;;;5048650;28;20033;-78
2021/11/16 05:32:02;;;;;;;30.00;18.38;;;7.10;99.90;;;;;;5035388;28;20115;-79
2021/11/16 05:34:28;;;;;;;32.53;19.27;;;7.10;99.90;;;;;;5044850;28;20030;-77
2021/11/16 05:36:54;;;;;;;28.80;18.48;;;7.10;99.90;;;;;;5034595;28;20037;-78
2021/11/16 05:39:19;;;;;;;33.55;19.80;;;7.00;99.90;;;;;;5030671;28;20030;-76
2021/11/16 05:41:47;;;;;;;31.73;19.33;;;7.00;99.90;;;;;;5032197;28;20042;-78
2021/11/16 05:44:13;;;;;;;34.80;19.65;;;7.00;99.90;;;;;;5031645;28;20489;-78
2021/11/16 05:46:39;;;;;;;30.63;18.95;;;7.00;99.90;;;;;;5031572;28;20022;-77
2021/11/16 05:49:05;;;;;;;29.75;18.80;;;6.90;99.90;;;;;;5034118;28;20028;-78
2021/11/16 05:51:31;;;;;;;32.95;22.33;;;6.90;99.90;;;;;;5033027;28;20064;-79
2021/11/16 05:54:00;;;;;;;35.20;20.42;;;6.90;99.90;;;;;;5032816;28;20026;-78
2021/11/16 05:56:28;;;;;;;29.20;19.20;;;6.90;99.90;;;;;;5028489;28;20366;-78
2021/11/16 05:58:56;;;;;;;31.92;19.63;;;6.90;99.90;;;;;;5034929;28;20032;-77
2021/11/16 06:01:27;;;;;;;32.30;20.02;;;6.80;99.90;;;;;;5041244;28;20478;-78
2021/11/16 06:03:53;;;;;;;28.80;18.52;;;6.80;99.90;;;;;;5037839;28;20092;-78
2021/11/16 06:06:23;;;;;;;33.35;19.35;;;6.80;99.90;;;;;;5043255;28;20049;-78
2021/11/16 06:08:50;;;;;;;28.58;18.25;;;6.90;99.90;;;;;;5043302;28;20084;-77
2021/11/16 06:11:18;;;;;;;27.83;18.00;;;7.00;99.90;;;;;;5030211;28;20030;-78
2021/11/16 06:13:44;;;;;;;29.05;16.98;;;6.90;99.90;;;;;;5040625;28;20030;-78
2021/11/16 06:16:10;;;;;;;31.15;18.73;;;6.90;99.90;;;;;;5033112;28;20029;-78
2021/11/16 06:18:36;;;;;;;32.85;19.10;;;6.90;99.90;;;;;;5033427;28;20033;-79
2021/11/16 06:21:03;;;;;;;28.20;18.10;;;6.90;99.90;;;;;;5037456;28;20087;-79
2021/11/16 06:23:28;;;;;;;26.60;16.67;;;6.90;99.90;;;;;;5042037;28;20036;-78
2021/11/16 06:25:54;;;;;;;29.55;18.70;;;6.90;99.90;;;;;;5043467;28;20025;-77
2021/11/16 06:28:20;;;;;;;28.88;18.10;;;6.80;99.90;;;;;;5025563;28;20061;-78
2021/11/16 06:30:45;;;;;;;30.42;17.50;;;6.80;99.90;;;;;;5037206;28;20083;-78
2021/11/16 06:33:11;;;;;;;29.88;19.13;;;6.80;99.90;;;;;;5036872;28;20079;-78
2021/11/16 06:35:37;;;;;;;30.38;19.20;;;6.80;99.90;;;;;;5038914;28;20401;-78
2021/11/16 06:38:03;;;;;;;32.80;18.40;;;6.80;99.90;;;;;;5034344;28;20397;-78
2021/11/16 06:40:28;;;;;;;29.17;17.52;;;6.80;99.90;;;;;;5037679;28;20443;-78
2021/11/16 06:42:55;;;;;;;23.27;15.48;;;6.80;99.90;;;;;;5034298;28;20021;-77
2021/11/16 06:45:21;;;;;;;24.95;15.98;;;6.70;99.90;;;;;;5030888;28;20025;-78
2021/11/16 06:47:47;;;;;;;32.88;17.85;;;6.70;99.90;;;;;;5032077;28;20403;-78
2021/11/16 06:50:12;;;;;;;24.55;16.33;;;6.80;99.90;;;;;;5036176;28;20029;-77
2021/11/16 06:52:38;;;;;;;27.10;17.15;;;6.90;99.90;;;;;;5034311;28;20033;-78
2021/11/16 06:55:07;;;;;;;26.77;15.77;;;6.90;99.90;;;;;;5033852;28;20096;-77
2021/11/16 06:57:33;;;;;;;28.33;16.98;;;6.80;99.90;;;;;;5037555;28;20027;-77
2021/11/16 06:59:59;;;;;;;26.80;15.95;;;6.80;99.90;;;;;;5036606;28;20022;-78
2021/11/16 07:02:26;;;;;;;26.75;16.70;;;6.80;99.90;;;;;;5033272;28;20029;-78
2021/11/16 07:04:53;;;;;;;28.27;15.88;;;6.80;99.90;;;;;;5039571;28;20025;-78
2021/11/16 07:07:18;;;;;;;23.13;15.52;;;6.90;99.90;;;;;;5040749;28;20038;-78
2021/11/16 07:09:44;;;;;;;21.50;15.93;;;7.00;99.90;;;;;;5038872;28;20083;-78
2021/11/16 07:12:14;;;;;;;26.83;15.95;;;6.80;99.90;;;;;;5037864;28;20025;-77
2021/11/16 07:14:40;;;;;;;22.55;15.82;;;6.80;99.90;;;;;;5040015;28;20032;-79
2021/11/16 07:17:11;;;;;;;23.02;15.45;;;6.80;99.90;;;;;;5039827;28;20030;-78
2021/11/16 07:19:53;;;;;;;25.77;16.52;;;6.80;99.90;;;;;;5052284;28;20056;-78
2021/11/16 07:22:26;;;;;;;22.42;14.38;;;6.80;99.90;;;;;;5051557;28;20082;-78
2021/11/16 07:25:16;;;;;;;19.02;14.13;;;6.80;99.90;;;;;;5050866;28;20026;-78
2021/11/16 07:27:48;;;;;;;20.75;13.98;;;6.80;99.90;;;;;;5051142;28;20036;-77
2021/11/16 07:30:22;;;;;;;18.90;13.93;;;6.80;99.90;;;;;;5043397;28;20032;-78
2021/11/16 07:32:49;;;;;;;20.02;14.55;;;6.80;99.90;;;;;;5040360;28;20013;-78
2021/11/16 07:35:17;;;;;;;22.15;14.60;;;6.80;99.90;;;;;;5044393;28;20086;-77
2021/11/16 07:37:45;;;;;;;22.90;15.15;;;6.90;99.90;;;;;;5043080;23;20037;-71
2021/11/16 07:40:14;;;;;;;21.23;14.20;;;6.90;99.90;;;;;;5006734;28;20030;-71
2021/11/16 07:43:01;;;;;;;21.88;14.77;;;6.90;99.90;;;;;;5014764;28;20026;-70
2021/11/16 07:45:46;;;;;;;20.98;14.32;;;7.00;99.90;;;;;;5012065;28;20030;-71
2021/11/16 07:48:18;;;;;;;21.98;15.23;;;7.00;99.90;;;;;;4993064;28;20061;-71
2021/11/16 07:50:52;;;;;;;20.73;14.07;;;7.10;99.90;;;;;;4993404;28;20394;-71
2021/11/16 07:53:27;;;;;;;21.35;14.63;;;7.00;99.90;;;;;;5001768;28;20041;-71
2021/11/16 07:55:52;;;;;;;21.85;15.30;;;7.10;99.90;;;;;;5004895;28;20069;-71
2021/11/16 07:58:19;;;;;;;20.42;15.18;;;7.10;99.90;;;;;;4998656;28;20053;-71
2021/11/16 08:00:47;;;;;;;22.02;15.15;;;7.10;99.90;;;;;;4996747;28;20034;-71
2021/11/16 08:03:17;;;;;;;20.73;14.98;;;7.10;99.90;;;;;;4992490;28;20034;-71
2021/11/16 08:08:51;;;;;;;19.80;15.18;;;7.20;99.90;;;;;;4993330;28;20023;-71
2021/11/16 08:11:14;;;;;;;20.40;13.55;;;7.20;99.90;;;;;;4991589;28;20038;-72
2021/11/16 08:13:50;;;;;;;18.25;13.15;;;7.10;99.90;;;;;;4991182;28;20018;-71
2021/11/16 08:16:15;;;;;;;18.33;13.43;;;7.10;99.90;;;;;;4992700;28;20049;-71
2021/11/16 08:18:50;;;;;;;22.50;16.13;;;7.10;99.90;;;;;;4989796;28;20026;-72
2021/11/16 08:21:17;;;;;;;20.58;14.23;;;7.10;99.90;;;;;;4992335;28;20034;-72
2021/11/16 08:23:52;;;;;;;16.60;13.60;;;7.20;99.90;;;;;;4993061;28;20022;-71
2021/11/16 08:26:19;;;;;;;19.30;13.25;;;7.30;99.90;;;;;;4993982;28;20026;-70
2021/11/16 08:28:48;;;;;;;19.17;13.40;;;7.20;99.90;;;;;;4991819;28;20485;-71
2021/11/16 08:31:15;;;;;;;18.98;12.70;;;7.30;99.90;;;;;;4993713;28;20038;-70
2021/11/16 08:33:41;;;;;;;18.85;14.00;;;7.30;99.90;;;;;;4994643;28;20030;-72
2021/11/16 08:36:06;;;;;;;18.15;12.50;;;7.30;99.90;;;;;;4993700;28;20041;-71
2021/11/16 08:38:37;;;;;;;18.85;14.18;;;7.30;99.90;;;;;;5003796;28;20038;-72
2021/11/16 08:41:04;;;;;;;19.75;13.38;;;7.30;99.90;;;;;;4994055;28;20105;-70
2021/11/16 08:43:36;;;;;;;17.90;13.43;;;7.30;99.90;;;;;;4993233;28;20078;-70
2021/11/16 08:46:04;;;;;;;18.88;13.50;;;7.30;99.90;;;;;;4984487;28;20029;-73
2021/11/16 08:48:30;;;;;;;21.42;13.85;;;7.30;99.90;;;;;;4986190;28;20490;-75
2021/11/16 08:51:03;;;;;;;19.08;13.07;;;7.30;99.90;;;;;;4995404;28;20069;-75
2021/11/16 08:53:31;;;;;;;18.88;13.88;;;7.30;99.90;;;;;;4982840;28;20030;-75
2021/11/16 08:55:58;;;;;;;22.55;13.70;;;7.40;99.90;;;;;;4990772;28;20030;-75
2021/11/16 08:58:31;;;;;;;20.88;12.88;;;7.40;99.90;;;;;;4992960;28;20030;-74
2021/11/16 09:01:00;;;;;;;18.70;13.90;;;7.50;99.90;;;;;;4997508;28;20094;-73
2021/11/16 09:03:29;;;;;;;20.75;13.70;;;7.60;99.90;;;;;;5021819;28;20018;-74
2021/11/16 09:05:56;;;;;;;23.10;16.25;;;7.60;99.90;;;;;;4993303;28;20026;-74
2021/11/16 09:08:25;;;;;;;21.77;14.48;;;7.50;99.90;;;;;;4990639;28;20033;-75
2021/11/16 09:10:56;;;;;;;21.67;15.13;;;7.20;99.90;;;;;;4993332;28;20034;-75
2021/11/16 09:13:25;;;;;;;26.00;16.38;;;7.20;99.90;;;;;;5010947;28;20109;-73
2021/11/16 09:15:54;;;;;;;24.48;15.25;;;7.30;99.90;;;;;;5008744;28;20490;-75
2021/11/16 09:18:21;;;;;;;22.88;15.50;;;7.30;99.90;;;;;;4990828;28;20074;-75
2021/11/16 09:21:00;;;;;;;21.55;14.90;;;7.30;99.90;;;;;;4991189;28;20429;-74
2021/11/16 09:23:30;;;;;;;28.20;17.83;;;7.40;99.90;;;;;;4994596;28;20018;-74
2021/11/16 09:28:56;;;;;;;21.63;14.32;;;7.30;99.90;;;;;;4991185;28;20027;-74
2021/11/16 09:31:42;;;;;;;28.95;15.05;;;7.50;99.90;;;;;;4990259;28;20402;-74
2021/11/16 09:34:21;;;;;;;21.48;12.88;;;7.40;99.90;;;;;;4991672;28;20042;-73
2021/11/16 09:36:53;;;;;;;18.67;12.75;;;7.40;99.90;;;;;;4993444;28;20038;-74
2021/11/16 09:39:44;;;;;;;20.83;11.98;;;7.30;99.90;;;;;;5011597;28;20114;-73
2021/11/16 09:42:13;;;;;;;17.63;11.80;;;7.40;99.90;;;;;;4994017;28;20038;-74
2021/11/16 09:44:43;;;;;;;19.30;12.38;;;7.40;99.90;;;;;;4993117;28;20023;-75
2021/11/16 09:47:15;;;;;;;15.23;11.50;;;7.40;99.90;;;;;;4996730;28;20057;-75
2021/11/16 09:49:44;;;;;;;14.15;10.57;;;7.60;99.90;;;;;;4998928;28;20022;-74
2021/11/16 09:52:17;;;;;;;14.23;10.25;;;7.50;99.90;;;;;;4991838;28;20126;-75
2021/11/16 09:54:49;;;;;;;18.85;11.77;;;7.50;99.90;;;;;;4996900;28;20521;-75
2021/11/16 09:57:15;;;;;;;18.02;10.65;;;7.50;99.90;;;;;;4996660;28;20402;-74
2021/11/16 09:59:43;;;;;;;16.10;10.50;;;7.50;99.90;;;;;;4995234;28;20057;-75
2021/11/16 10:02:25;;;;;;;15.30;9.05;;;7.50;99.90;;;;;;5001560;28;20054;-75
2021/11/16 10:04:52;;;;;;;13.13;8.93;;;7.60;99.90;;;;;;4999092;28;20470;-76
2021/11/16 10:07:20;;;;;;;15.57;9.43;;;7.50;99.90;;;;;;5011189;28;20022;-74
2021/11/16 10:09:49;;;;;;;13.80;9.70;;;7.40;99.90;;;;;;5009650;28;20060;-74
2021/11/16 10:12:17;;;;;;;13.63;8.93;;;7.40;99.90;;;;;;4995568;28;20049;-74
2021/11/16 10:14:43;;;;;;;14.98;9.73;;;7.40;99.90;;;;;;5001931;28;20430;-74
2021/11/16 10:17:08;;;;;;;14.90;9.80;;;7.50;99.90;;;;;;5001453;28;20026;-73
2021/11/16 10:19:34;;;;;;;15.70;9.10;;;7.50;99.90;;;;;;4996273;28;20518;-73
2021/11/16 10:22:00;;;;;;;10.82;8.13;;;7.50;99.90;;;;;;5008439;28;20027;-75
2021/11/16 10:24:31;;;;;;;13.20;8.63;;;7.50;99.90;;;;;;4997045;28;20027;-74
2021/11/16 10:27:02;;;;;;;14.20;9.27;;;7.60;99.90;;;;;;4991417;28;20034;-73
2021/11/16 10:29:29;;;;;;;;;;;7.60;99.90;;;;;;4998382;28;20028;-75
2021/11/16 10:31:54;;;;;;;12.65;8.10;;;7.60;99.90;;;;;;4997149;28;20001;-75
2021/11/16 10:34:36;;;;;;;13.73;8.52;;;7.50;99.90;;;;;;4997273;28;20105;-74
2021/11/16 10:37:05;;;;;;;11.63;8.85;;;7.60;99.90;;;;;;4998075;28;20042;-76
2021/11/16 10:39:31;;;;;;;11.13;7.32;;;7.50;99.90;;;;;;4992059;28;20033;-75
2021/11/16 10:41:58;;;;;;;16.92;9.73;;;7.50;99.90;;;;;;4988183;28;20035;-76
2021/11/16 10:44:24;;;;;;;13.43;9.00;;;7.60;99.90;;;;;;4993512;28;20478;-75
2021/11/16 10:46:50;;;;;;;13.77;8.35;;;7.60;99.90;;;;;;4991110;28;20026;-74
2021/11/16 10:49:17;;;;;;;10.52;7.68;;;7.60;99.90;;;;;;4993381;28;20645;-75
2021/11/16 10:51:46;;;;;;;10.00;7.13;;;7.60;99.90;;;;;;4989680;28;20039;-75
2021/11/16 10:54:12;;;;;;;10.85;7.30;;;7.60;99.90;;;;;;4995340;28;20105;-74
2021/11/16 10:56:40;;;;;;;9.30;6.85;;;7.50;99.90;;;;;;4995776;28;20026;-74
2021/11/16 10:59:09;;;;;;;20.20;8.35;;;7.40;99.90;;;;;;4996557;28;20026;-73
2021/11/16 11:01:53;;;;;;;15.25;8.48;;;7.40;99.90;;;;;;4995174;28;20030;-73
2021/11/16 11:04:27;;;;;;;11.52;6.90;;;7.50;99.90;;;;;;4997505;28;20030;-73
2021/11/16 11:06:54;;;;;;;9.18;6.90;;;7.50;99.90;;;;;;5011807;28;20106;-74
2021/11/16 11:09:21;;;;;;;10.60;7.35;;;7.50;99.90;;;;;;4996711;28;20023;-73
2021/11/16 11:11:51;;;;;;;10.48;7.68;;;7.50;99.90;;;;;;4996408;28;20037;-73
2021/11/16 11:14:23;;;;;;;9.68;6.38;;;7.60;99.90;;;;;;4995283;28;20064;-73
2021/11/16 11:16:56;;;;;;;9.95;7.72;;;7.50;99.90;;;;;;4980599;28;20042;-74
2021/11/16 11:19:26;;;;;;;13.20;7.07;;;7.40;99.90;;;;;;4983584;28;20030;-74
2021/11/16 11:22:24;;;;;;;12.73;7.53;;;7.50;99.90;;;;;;4996492;28;20030;-74
2021/11/16 11:28:01;;;;;;;12.10;7.78;;;7.30;99.90;;;;;;4997556;28;20580;-74
2021/11/16 11:30:27;;;;;;;8.63;6.53;;;7.40;99.90;;;;;;4995884;28;20077;-73
2021/11/16 11:32:53;;;;;;;9.48;7.07;;;7.40;99.90;;;;;;4996273;28;20022;-73
2021/11/16 11:35:25;;;;;;;11.43;6.72;;;7.40;99.90;;;;;;4998906;28;20113;-73
2021/11/16 11:38:11;;;;;;;9.05;6.78;;;7.30;99.90;;;;;;4996576;28;20573;-73
2021/11/16 11:40:40;;;;;;;7.25;5.40;;;7.40;99.90;;;;;;4998341;28;20026;-73
2021/11/16 11:43:20;;;;;;;7.68;5.30;;;7.40;99.90;;;;;;4997896;28;20019;-73
2021/11/16 11:45:47;;;;;;;8.07;5.78;;;7.40;99.90;;;;;;4992763;28;20041;-74
2021/11/16 11:48:19;;;;;;;9.35;6.05;;;7.50;99.90;;;;;;5001588;28;20477;-73
2021/11/16 11:50:55;;;;;;;8.30;5.93;;;7.50;99.90;;;;;;5003218;28;20019;-73
2021/11/16 11:53:32;;;;;;;8.30;4.97;;;7.50;99.90;;;;;;5004474;28;20033;-74
2021/11/16 11:56:00;;;;;;;6.45;4.88;;;7.50;99.90;;;;;;5014692;28;20014;-74
2021/11/16 11:58:29;;;;;;;9.90;5.93;;;7.60;99.90;;;;;;5014722;28;20035;-72
2021/11/16 12:01:00;;;;;;;9.80;6.68;;;7.70;99.90;;;;;;5018164;28;20023;-74
2021/11/16 12:03:26;;;;;;;12.00;7.40;;;7.70;99.90;;;;;;4995274;28;20027;-73
2021/11/16 12:05:52;;;;;;;11.70;7.82;;;7.70;99.90;;;;;;4995603;28;20133;-74
2021/11/16 12:08:18;;;;;;;10.27;6.60;;;7.80;99.90;;;;;;4992754;28;20077;-73
2021/11/16 12:10:49;;;;;;;11.90;7.13;;;7.90;99.90;;;;;;4995090;28;20025;-74
2021/11/16 12:13:23;;;;;;;9.60;7.00;;;7.80;99.90;;;;;;4989117;28;20120;-73
2021/11/16 12:16:01;;;;;;;9.52;6.50;;;7.70;99.90;;;;;;4994921;28;20033;-74
2021/11/16 12:18:44;;;;;;;9.35;6.22;;;7.80;99.90;;;;;;4994518;28;20130;-74
2021/11/16 12:21:33;;;;;;;9.30;5.72;;;8.10;99.90;;;;;;5006021;28;20113;-74
2021/11/16 12:24:02;;;;;;;7.03;5.40;;;8.00;99.90;;;;;;5002587;28;20378;-74
2021/11/16 12:26:31;;;;;;;7.25;5.43;;;8.10;99.90;;;;;;5010961;28;20429;-74
2021/11/16 12:29:18;;;;;;;8.85;6.10;;;7.90;99.90;;;;;;4993029;28;20052;-75
2021/11/16 12:31:49;;;;;;;8.70;6.20;;;7.80;99.90;;;;;;4994007;28;20034;-74
2021/11/16 12:34:39;;;;;;;8.38;5.70;;;7.70;99.90;;;;;;4995390;28;20564;-74
2021/11/16 12:37:07;;;;;;;10.38;6.60;;;7.60;99.90;;;;;;5002572;28;20034;-74
2021/11/16 12:39:33;;;;;;;8.05;6.07;;;7.60;99.90;;;;;;4990398;28;20026;-74
2021/11/16 12:42:11;;;;;;;8.63;6.30;;;7.60;99.90;;;;;;4994509;28;20107;-74
2021/11/16 12:44:46;;;;;;;7.25;5.20;;;7.50;99.90;;;;;;4995458;28;20034;-74
2021/11/16 12:47:14;;;;;;;14.95;6.65;;;7.50;99.90;;;;;;4994510;28;20034;-75
2021/11/16 12:49:42;;;;;;;9.85;6.35;;;7.60;99.90;;;;;;4996141;28;20110;-73
2021/11/16 12:52:14;;;;;;;9.52;6.32;;;7.60;99.90;;;;;;4979837;28;20390;-73
2021/11/16 12:54:40;;;;;;;8.02;5.72;;;7.60;99.90;;;;;;4998133;28;20014;-74
2021/11/16 12:57:14;;;;;;;7.70;6.38;;;7.60;99.90;;;;;;4994542;28;20180;-73
2021/11/16 12:59:42;;;;;;;9.80;5.63;;;7.50;99.90;;;;;;5004214;28;20085;-73
2021/11/16 13:02:25;;;;;;;6.97;5.88;;;7.50;99.90;;;;;;4994583;28;20109;-74
2021/11/16 13:04:59;;;;;;;10.57;5.93;;;7.40;99.90;;;;;;4987371;28;20022;-73
2021/11/16 13:07:35;;;;;;;7.80;5.68;;;7.40;99.90;;;;;;4995133;28;20029;-74